パゴパゴ の空港の天気 - METARとTAF

パゴパゴ国際空港 ( NSTU / PPG ) - アメリカ領サモア パゴパゴ
飛行場実況気象(Metar)
観測時間04/25 10:50 SST (04/25 21:50 UTC)
風向・風速北 3m/s
視程10km以上
天気現象
少しの雲 雲底高度 640m
気温29.5℃
湿度78%
気圧1011.3hPa
METARNSTU 252150Z VRB05KT 12SM FEW021 30/25 A2986 RMK SLP113 T02950252
過去の天気等 Google飛行場航空写真 Wunderground天気予報

過去48時間のMETAR

飛行場予報(TAF)
発表時間: 4/25 06:25 SST (4/25 17:25 UTC)
予報対象時間: 25日7時 SST ~ 26日7時 SST
風向・風速東南東 3m/s
視程10km以上
全天の4割程度の雲 雲底高度 610m
全天の4割程度の雲 雲底高度 1,220m
全天の4割程度の雲 雲底高度 3,050m
NSTU 251725Z 2518/2618 12006KT P6SM SCT020 SCT040 SCT100